sensor_id;sensor_type;location;lat;lon;timestamp;P1;durP1;ratioP1;P2;durP2;ratioP2
23586;SDS011;11971;51.148;4.104;2023-06-22T00:00:39;103.95;;;44.03;;
23586;SDS011;11971;51.148;4.104;2023-06-22T00:03:07;102.18;;;43.42;;
23586;SDS011;11971;51.148;4.104;2023-06-22T00:05:34;101.05;;;43.22;;
23586;SDS011;11971;51.148;4.104;2023-06-22T00:08:02;102.50;;;43.40;;
23586;SDS011;11971;51.148;4.104;2023-06-22T00:10:30;105.65;;;44.10;;
23586;SDS011;11971;51.148;4.104;2023-06-22T00:12:58;105.30;;;43.30;;
23586;SDS011;11971;51.148;4.104;2023-06-22T00:15:24;103.80;;;43.85;;
23586;SDS011;11971;51.148;4.104;2023-06-22T00:17:51;102.88;;;42.60;;
23586;SDS011;11971;51.148;4.104;2023-06-22T00:20:17;104.55;;;44.42;;
23586;SDS011;11971;51.148;4.104;2023-06-22T00:22:44;103.40;;;43.28;;
23586;SDS011;11971;51.148;4.104;2023-06-22T00:25:12;103.93;;;43.33;;
23586;SDS011;11971;51.148;4.104;2023-06-22T00:27:39;99.18;;;42.50;;
23586;SDS011;11971;51.148;4.104;2023-06-22T00:30:08;101.32;;;43.63;;
23586;SDS011;11971;51.148;4.104;2023-06-22T00:32:36;104.28;;;44.28;;
23586;SDS011;11971;51.148;4.104;2023-06-22T00:35:03;106.43;;;44.13;;
23586;SDS011;11971;51.148;4.104;2023-06-22T00:37:30;103.65;;;43.47;;
23586;SDS011;11971;51.148;4.104;2023-06-22T00:39:58;100.93;;;43.13;;
23586;SDS011;11971;51.148;4.104;2023-06-22T00:42:24;101.45;;;42.40;;
23586;SDS011;11971;51.148;4.104;2023-06-22T00:44:51;100.13;;;43.17;;
23586;SDS011;11971;51.148;4.104;2023-06-22T00:47:19;101.75;;;43.45;;
23586;SDS011;11971;51.148;4.104;2023-06-22T00:49:46;101.63;;;43.20;;
23586;SDS011;11971;51.148;4.104;2023-06-22T00:52:16;100.85;;;43.03;;
23586;SDS011;11971;51.148;4.104;2023-06-22T00:54:45;101.95;;;43.90;;
23586;SDS011;11971;51.148;4.104;2023-06-22T00:57:14;102.30;;;43.40;;
23586;SDS011;11971;51.148;4.104;2023-06-22T00:59:41;102.95;;;43.90;;
23586;SDS011;11971;51.148;4.104;2023-06-22T01:02:08;102.22;;;43.90;;
23586;SDS011;11971;51.148;4.104;2023-06-22T01:04:37;104.82;;;44.88;;
23586;SDS011;11971;51.148;4.104;2023-06-22T01:07:08;105.47;;;44.70;;
23586;SDS011;11971;51.148;4.104;2023-06-22T01:09:41;102.35;;;44.10;;
23586;SDS011;11971;51.148;4.104;2023-06-22T01:12:10;101.50;;;43.20;;
23586;SDS011;11971;51.148;4.104;2023-06-22T01:14:39;100.45;;;42.67;;
23586;SDS011;11971;51.148;4.104;2023-06-22T01:17:10;103.05;;;43.85;;
23586;SDS011;11971;51.148;4.104;2023-06-22T01:19:43;104.22;;;43.30;;
23586;SDS011;11971;51.148;4.104;2023-06-22T01:22:13;103.03;;;43.75;;
23586;SDS011;11971;51.148;4.104;2023-06-22T01:27:14;100.85;;;43.13;;
23586;SDS011;11971;51.148;4.104;2023-06-22T01:29:48;102.72;;;43.30;;
23586;SDS011;11971;51.148;4.104;2023-06-22T01:32:16;107.10;;;42.88;;
23586;SDS011;11971;51.148;4.104;2023-06-22T01:34:44;101.47;;;43.30;;
23586;SDS011;11971;51.148;4.104;2023-06-22T01:37:11;101.05;;;43.42;;
23586;SDS011;11971;51.148;4.104;2023-06-22T01:39:38;100.00;;;41.97;;
23586;SDS011;11971;51.148;4.104;2023-06-22T01:42:05;100.53;;;42.63;;
23586;SDS011;11971;51.148;4.104;2023-06-22T01:44:32;99.63;;;43.00;;
23586;SDS011;11971;51.148;4.104;2023-06-22T01:47:01;105.22;;;42.70;;
23586;SDS011;11971;51.148;4.104;2023-06-22T01:49:28;98.72;;;42.38;;
23586;SDS011;11971;51.148;4.104;2023-06-22T01:51:55;102.13;;;42.50;;
23586;SDS011;11971;51.148;4.104;2023-06-22T01:54:22;99.65;;;42.63;;
23586;SDS011;11971;51.148;4.104;2023-06-22T01:56:49;98.50;;;42.70;;
23586;SDS011;11971;51.148;4.104;2023-06-22T01:59:17;101.05;;;43.03;;
23586;SDS011;11971;51.148;4.104;2023-06-22T02:01:49;101.72;;;43.10;;
23586;SDS011;11971;51.148;4.104;2023-06-22T02:04:21;98.72;;;43.10;;
23586;SDS011;11971;51.148;4.104;2023-06-22T02:06:55;98.65;;;42.92;;
23586;SDS011;11971;51.148;4.104;2023-06-22T02:09:23;95.57;;;41.63;;
23586;SDS011;11971;51.148;4.104;2023-06-22T02:11:50;96.68;;;41.55;;
23586;SDS011;11971;51.148;4.104;2023-06-22T02:14:19;99.22;;;43.15;;
23586;SDS011;11971;51.148;4.104;2023-06-22T02:16:47;99.38;;;42.35;;
23586;SDS011;11971;51.148;4.104;2023-06-22T02:19:13;99.10;;;42.20;;
23586;SDS011;11971;51.148;4.104;2023-06-22T02:21:42;98.25;;;42.30;;
23586;SDS011;11971;51.148;4.104;2023-06-22T02:24:09;95.82;;;41.78;;
23586;SDS011;11971;51.148;4.104;2023-06-22T02:26:36;98.50;;;42.08;;
23586;SDS011;11971;51.148;4.104;2023-06-22T02:29:03;106.57;;;42.33;;
23586;SDS011;11971;51.148;4.104;2023-06-22T02:31:30;98.82;;;42.42;;
23586;SDS011;11971;51.148;4.104;2023-06-22T02:33:57;99.82;;;42.28;;
23586;SDS011;11971;51.148;4.104;2023-06-22T02:36:24;100.78;;;42.35;;
23586;SDS011;11971;51.148;4.104;2023-06-22T02:38:54;98.30;;;41.03;;
23586;SDS011;11971;51.148;4.104;2023-06-22T02:41:23;98.22;;;41.60;;
23586;SDS011;11971;51.148;4.104;2023-06-22T02:43:50;96.35;;;41.58;;
23586;SDS011;11971;51.148;4.104;2023-06-22T02:46:17;96.70;;;41.53;;
23586;SDS011;11971;51.148;4.104;2023-06-22T02:48:44;101.15;;;41.60;;
23586;SDS011;11971;51.148;4.104;2023-06-22T02:51:10;98.18;;;42.08;;
23586;SDS011;11971;51.148;4.104;2023-06-22T02:53:37;101.55;;;42.90;;
23586;SDS011;11971;51.148;4.104;2023-06-22T02:56:06;101.45;;;42.15;;
23586;SDS011;11971;51.148;4.104;2023-06-22T02:58:32;99.00;;;41.53;;
23586;SDS011;11971;51.148;4.104;2023-06-22T03:01:03;99.43;;;41.85;;
23586;SDS011;11971;51.148;4.104;2023-06-22T03:03:30;98.68;;;42.15;;
23586;SDS011;11971;51.148;4.104;2023-06-22T03:05:57;97.65;;;41.58;;
23586;SDS011;11971;51.148;4.104;2023-06-22T03:08:26;95.70;;;41.30;;
23586;SDS011;11971;51.148;4.104;2023-06-22T03:10:53;100.78;;;43.65;;
23586;SDS011;11971;51.148;4.104;2023-06-22T03:13:21;97.80;;;41.38;;
23586;SDS011;11971;51.148;4.104;2023-06-22T03:15:47;97.50;;;42.05;;
23586;SDS011;11971;51.148;4.104;2023-06-22T03:18:14;96.28;;;41.65;;
23586;SDS011;11971;51.148;4.104;2023-06-22T03:20:41;97.72;;;42.17;;
23586;SDS011;11971;51.148;4.104;2023-06-22T03:23:08;95.95;;;41.50;;
23586;SDS011;11971;51.148;4.104;2023-06-22T03:25:35;96.40;;;41.35;;
23586;SDS011;11971;51.148;4.104;2023-06-22T03:28:02;137.13;;;41.80;;
23586;SDS011;11971;51.148;4.104;2023-06-22T03:30:30;99.60;;;41.05;;
23586;SDS011;11971;51.148;4.104;2023-06-22T03:32:57;101.80;;;41.80;;
23586;SDS011;11971;51.148;4.104;2023-06-22T03:35:23;835.63;;;752.13;;
23586;SDS011;11971;51.148;4.104;2023-06-22T03:37:50;1999.90;;;999.90;;
23586;SDS011;11971;51.148;4.104;2023-06-22T03:40:17;1999.90;;;999.90;;
23586;SDS011;11971;51.148;4.104;2023-06-22T03:42:44;1999.90;;;999.90;;
23586;SDS011;11971;51.148;4.104;2023-06-22T03:45:10;1999.90;;;999.90;;
23586;SDS011;11971;51.148;4.104;2023-06-22T03:47:38;1721.47;;;987.28;;
23586;SDS011;11971;51.148;4.104;2023-06-22T03:50:05;900.50;;;776.35;;
23586;SDS011;11971;51.148;4.104;2023-06-22T03:52:33;1999.90;;;999.90;;
23586;SDS011;11971;51.148;4.104;2023-06-22T03:54:59;1999.90;;;999.90;;
23586;SDS011;11971;51.148;4.104;2023-06-22T03:57:26;1999.90;;;999.90;;
23586;SDS011;11971;51.148;4.104;2023-06-22T03:59:53;1999.90;;;999.90;;
23586;SDS011;11971;51.148;4.104;2023-06-22T04:02:20;1999.90;;;999.90;;
23586;SDS011;11971;51.148;4.104;2023-06-22T04:04:48;1484.35;;;515.42;;
23586;SDS011;11971;51.148;4.104;2023-06-22T04:07:15;1999.90;;;999.90;;
23586;SDS011;11971;51.148;4.104;2023-06-22T04:09:43;1863.47;;;879.25;;
23586;SDS011;11971;51.148;4.104;2023-06-22T04:12:09;882.60;;;380.90;;
23586;SDS011;11971;51.148;4.104;2023-06-22T04:14:36;193.48;;;89.07;;
23586;SDS011;11971;51.148;4.104;2023-06-22T04:17:04;194.60;;;87.80;;
23586;SDS011;11971;51.148;4.104;2023-06-22T04:19:30;205.05;;;103.40;;
23586;SDS011;11971;51.148;4.104;2023-06-22T04:21:59;254.70;;;127.05;;
23586;SDS011;11971;51.148;4.104;2023-06-22T04:24:25;217.60;;;136.88;;
23586;SDS011;11971;51.148;4.104;2023-06-22T04:26:52;207.13;;;112.25;;
23586;SDS011;11971;51.148;4.104;2023-06-22T04:29:19;216.75;;;102.63;;
23586;SDS011;11971;51.148;4.104;2023-06-22T04:31:53;192.98;;;90.03;;
23586;SDS011;11971;51.148;4.104;2023-06-22T04:34:22;183.10;;;72.32;;
23586;SDS011;11971;51.148;4.104;2023-06-22T04:36:51;182.50;;;72.38;;
23586;SDS011;11971;51.148;4.104;2023-06-22T04:39:19;181.68;;;72.63;;
23586;SDS011;11971;51.148;4.104;2023-06-22T04:41:46;192.80;;;83.97;;
23586;SDS011;11971;51.148;4.104;2023-06-22T04:44:13;185.63;;;83.95;;
23586;SDS011;11971;51.148;4.104;2023-06-22T04:46:49;187.25;;;87.78;;
23586;SDS011;11971;51.148;4.104;2023-06-22T04:49:19;188.77;;;84.90;;
23586;SDS011;11971;51.148;4.104;2023-06-22T04:51:46;193.05;;;92.25;;
23586;SDS011;11971;51.148;4.104;2023-06-22T04:54:13;193.30;;;92.20;;
23586;SDS011;11971;51.148;4.104;2023-06-22T04:56:41;196.30;;;92.25;;
23586;SDS011;11971;51.148;4.104;2023-06-22T04:59:07;193.20;;;90.72;;
23586;SDS011;11971;51.148;4.104;2023-06-22T05:01:38;189.48;;;85.70;;
23586;SDS011;11971;51.148;4.104;2023-06-22T05:04:05;187.25;;;83.20;;
23586;SDS011;11971;51.148;4.104;2023-06-22T05:06:31;188.65;;;82.55;;
23586;SDS011;11971;51.148;4.104;2023-06-22T05:08:58;191.00;;;89.32;;
23586;SDS011;11971;51.148;4.104;2023-06-22T05:11:25;193.20;;;88.05;;
23586;SDS011;11971;51.148;4.104;2023-06-22T05:13:53;194.25;;;86.30;;
23586;SDS011;11971;51.148;4.104;2023-06-22T05:16:20;187.38;;;82.28;;
23586;SDS011;11971;51.148;4.104;2023-06-22T05:18:49;186.40;;;76.68;;
23586;SDS011;11971;51.148;4.104;2023-06-22T05:21:24;202.73;;;103.40;;
23586;SDS011;11971;51.148;4.104;2023-06-22T05:23:52;210.13;;;115.00;;
23586;SDS011;11971;51.148;4.104;2023-06-22T05:26:21;211.30;;;117.00;;
23586;SDS011;11971;51.148;4.104;2023-06-22T05:28:48;207.25;;;115.60;;
23586;SDS011;11971;51.148;4.104;2023-06-22T05:31:16;219.32;;;129.38;;
23586;SDS011;11971;51.148;4.104;2023-06-22T05:33:45;212.27;;;122.45;;
23586;SDS011;11971;51.148;4.104;2023-06-22T05:36:12;200.80;;;104.22;;
23586;SDS011;11971;51.148;4.104;2023-06-22T05:38:39;204.52;;;107.95;;
23586;SDS011;11971;51.148;4.104;2023-06-22T05:41:07;209.68;;;111.82;;
23586;SDS011;11971;51.148;4.104;2023-06-22T05:43:34;236.13;;;136.15;;
23586;SDS011;11971;51.148;4.104;2023-06-22T05:46:01;216.93;;;120.63;;
23586;SDS011;11971;51.148;4.104;2023-06-22T05:48:29;223.10;;;131.93;;
23586;SDS011;11971;51.148;4.104;2023-06-22T05:50:56;247.48;;;138.05;;
23586;SDS011;11971;51.148;4.104;2023-06-22T05:53:23;209.23;;;112.90;;
23586;SDS011;11971;51.148;4.104;2023-06-22T05:55:50;616.10;;;558.70;;
23586;SDS011;11971;51.148;4.104;2023-06-22T05:58:17;482.45;;;437.40;;
23586;SDS011;11971;51.148;4.104;2023-06-22T06:00:43;276.42;;;237.90;;
23586;SDS011;11971;51.148;4.104;2023-06-22T06:03:11;195.32;;;91.35;;
23586;SDS011;11971;51.148;4.104;2023-06-22T06:05:43;195.93;;;98.07;;
23586;SDS011;11971;51.148;4.104;2023-06-22T06:08:10;194.88;;;87.15;;
23586;SDS011;11971;51.148;4.104;2023-06-22T06:10:37;190.85;;;83.25;;
23586;SDS011;11971;51.148;4.104;2023-06-22T06:13:04;194.18;;;87.40;;
23586;SDS011;11971;51.148;4.104;2023-06-22T06:15:30;203.00;;;94.78;;
23586;SDS011;11971;51.148;4.104;2023-06-22T06:17:57;216.82;;;123.95;;
23586;SDS011;11971;51.148;4.104;2023-06-22T06:20:24;205.52;;;104.30;;
23586;SDS011;11971;51.148;4.104;2023-06-22T06:22:54;197.32;;;86.93;;
23586;SDS011;11971;51.148;4.104;2023-06-22T06:25:21;624.25;;;566.35;;
23586;SDS011;11971;51.148;4.104;2023-06-22T06:27:49;387.52;;;348.45;;
23586;SDS011;11971;51.148;4.104;2023-06-22T06:30:17;214.45;;;113.63;;
23586;SDS011;11971;51.148;4.104;2023-06-22T06:32:44;199.13;;;99.63;;
23586;SDS011;11971;51.148;4.104;2023-06-22T06:35:12;195.55;;;87.43;;
23586;SDS011;11971;51.148;4.104;2023-06-22T06:37:40;312.43;;;278.40;;
23586;SDS011;11971;51.148;4.104;2023-06-22T06:40:10;205.82;;;101.63;;
23586;SDS011;11971;51.148;4.104;2023-06-22T06:42:38;200.45;;;88.40;;
23586;SDS011;11971;51.148;4.104;2023-06-22T06:45:07;215.97;;;117.77;;
23586;SDS011;11971;51.148;4.104;2023-06-22T06:47:34;220.05;;;120.75;;
23586;SDS011;11971;51.148;4.104;2023-06-22T06:50:01;224.45;;;136.00;;
23586;SDS011;11971;51.148;4.104;2023-06-22T06:52:27;202.68;;;98.80;;
23586;SDS011;11971;51.148;4.104;2023-06-22T06:54:54;206.15;;;94.97;;
23586;SDS011;11971;51.148;4.104;2023-06-22T06:57:22;204.80;;;102.05;;
23586;SDS011;11971;51.148;4.104;2023-06-22T06:59:54;206.65;;;104.60;;
23586;SDS011;11971;51.148;4.104;2023-06-22T07:02:20;237.90;;;153.23;;
23586;SDS011;11971;51.148;4.104;2023-06-22T07:04:47;242.90;;;158.30;;
23586;SDS011;11971;51.148;4.104;2023-06-22T07:07:14;247.65;;;173.07;;
23586;SDS011;11971;51.148;4.104;2023-06-22T07:09:41;250.07;;;168.15;;
23586;SDS011;11971;51.148;4.104;2023-06-22T07:12:07;237.00;;;154.43;;
23586;SDS011;11971;51.148;4.104;2023-06-22T07:14:36;252.73;;;184.05;;
23586;SDS011;11971;51.148;4.104;2023-06-22T07:17:03;257.85;;;185.35;;
23586;SDS011;11971;51.148;4.104;2023-06-22T07:19:30;260.20;;;189.07;;
23586;SDS011;11971;51.148;4.104;2023-06-22T07:21:57;262.38;;;195.50;;
23586;SDS011;11971;51.148;4.104;2023-06-22T07:24:23;261.67;;;191.70;;
23586;SDS011;11971;51.148;4.104;2023-06-22T07:26:50;256.23;;;190.90;;
23586;SDS011;11971;51.148;4.104;2023-06-22T07:29:17;258.92;;;184.63;;
23586;SDS011;11971;51.148;4.104;2023-06-22T07:31:46;253.10;;;181.18;;
23586;SDS011;11971;51.148;4.104;2023-06-22T07:34:14;255.65;;;185.15;;
23586;SDS011;11971;51.148;4.104;2023-06-22T07:36:41;263.02;;;201.65;;
23586;SDS011;11971;51.148;4.104;2023-06-22T07:39:08;260.83;;;190.27;;
23586;SDS011;11971;51.148;4.104;2023-06-22T07:41:34;264.70;;;195.50;;
23586;SDS011;11971;51.148;4.104;2023-06-22T07:44:01;260.58;;;194.40;;
23586;SDS011;11971;51.148;4.104;2023-06-22T07:46:28;263.83;;;194.88;;
23586;SDS011;11971;51.148;4.104;2023-06-22T07:48:57;258.27;;;191.80;;
23586;SDS011;11971;51.148;4.104;2023-06-22T07:51:26;248.38;;;177.38;;
23586;SDS011;11971;51.148;4.104;2023-06-22T07:53:52;255.57;;;180.35;;
23586;SDS011;11971;51.148;4.104;2023-06-22T07:56:20;262.35;;;196.02;;
23586;SDS011;11971;51.148;4.104;2023-06-22T07:58:47;268.75;;;203.48;;
23586;SDS011;11971;51.148;4.104;2023-06-22T08:01:14;268.90;;;212.57;;
23586;SDS011;11971;51.148;4.104;2023-06-22T08:03:41;804.67;;;729.35;;
23586;SDS011;11971;51.148;4.104;2023-06-22T08:06:09;486.33;;;249.80;;
23586;SDS011;11971;51.148;4.104;2023-06-22T08:08:36;961.05;;;862.88;;
23586;SDS011;11971;51.148;4.104;2023-06-22T08:11:02;1085.45;;;956.90;;
23586;SDS011;11971;51.148;4.104;2023-06-22T08:13:29;601.65;;;538.85;;
23586;SDS011;11971;51.148;4.104;2023-06-22T08:15:56;208.68;;;114.97;;
23586;SDS011;11971;51.148;4.104;2023-06-22T08:18:22;201.05;;;103.90;;
23586;SDS011;11971;51.148;4.104;2023-06-22T08:20:49;196.88;;;87.90;;
23586;SDS011;11971;51.148;4.104;2023-06-22T08:23:17;201.07;;;91.03;;
23586;SDS011;11971;51.148;4.104;2023-06-22T08:25:44;392.33;;;110.80;;
23586;SDS011;11971;51.148;4.104;2023-06-22T08:28:13;329.88;;;87.68;;
23586;SDS011;11971;51.148;4.104;2023-06-22T08:30:39;604.00;;;278.27;;
23586;SDS011;11971;51.148;4.104;2023-06-22T08:35:35;914.90;;;819.38;;
23586;SDS011;11971;51.148;4.104;2023-06-22T08:38:01;1169.60;;;978.03;;
23586;SDS011;11971;51.148;4.104;2023-06-22T08:40:30;1999.90;;;999.90;;
23586;SDS011;11971;51.148;4.104;2023-06-22T08:42:56;1030.95;;;453.02;;
23586;SDS011;11971;51.148;4.104;2023-06-22T08:45:23;725.85;;;195.93;;
23586;SDS011;11971;51.148;4.104;2023-06-22T08:47:50;1611.03;;;855.78;;
23586;SDS011;11971;51.148;4.104;2023-06-22T08:50:17;1036.28;;;921.47;;
23586;SDS011;11971;51.148;4.104;2023-06-22T08:52:43;924.10;;;829.45;;
23586;SDS011;11971;51.148;4.104;2023-06-22T08:55:10;501.50;;;448.45;;
23586;SDS011;11971;51.148;4.104;2023-06-22T08:57:39;400.77;;;352.10;;
23586;SDS011;11971;51.148;4.104;2023-06-22T09:00:06;367.95;;;312.08;;
23586;SDS011;11971;51.148;4.104;2023-06-22T09:02:45;329.52;;;266.23;;
23586;SDS011;11971;51.148;4.104;2023-06-22T09:05:12;370.80;;;324.58;;
23586;SDS011;11971;51.148;4.104;2023-06-22T09:07:38;421.05;;;375.05;;
23586;SDS011;11971;51.148;4.104;2023-06-22T09:10:06;408.65;;;363.02;;
23586;SDS011;11971;51.148;4.104;2023-06-22T09:12:33;331.05;;;262.13;;
23586;SDS011;11971;51.148;4.104;2023-06-22T09:15:04;346.65;;;294.40;;
23586;SDS011;11971;51.148;4.104;2023-06-22T09:17:32;354.88;;;305.17;;
23586;SDS011;11971;51.148;4.104;2023-06-22T09:19:59;533.13;;;478.90;;
23586;SDS011;11971;51.148;4.104;2023-06-22T09:22:29;526.53;;;473.40;;
23586;SDS011;11971;51.148;4.104;2023-06-22T09:24:56;786.13;;;710.08;;
23586;SDS011;11971;51.148;4.104;2023-06-22T09:27:24;892.15;;;804.35;;
23586;SDS011;11971;51.148;4.104;2023-06-22T09:29:51;932.15;;;838.95;;
23586;SDS011;11971;51.148;4.104;2023-06-22T09:32:19;1011.65;;;906.40;;
23586;SDS011;11971;51.148;4.104;2023-06-22T09:34:46;1054.43;;;937.10;;
23586;SDS011;11971;51.148;4.104;2023-06-22T09:37:13;1071.40;;;947.03;;
23586;SDS011;11971;51.148;4.104;2023-06-22T09:39:40;1084.10;;;953.65;;
23586;SDS011;11971;51.148;4.104;2023-06-22T09:42:07;1093.72;;;956.88;;
23586;SDS011;11971;51.148;4.104;2023-06-22T09:44:34;1107.78;;;968.75;;
23586;SDS011;11971;51.148;4.104;2023-06-22T09:47:00;1138.40;;;967.70;;
23586;SDS011;11971;51.148;4.104;2023-06-22T09:49:29;1225.75;;;997.97;;
23586;SDS011;11971;51.148;4.104;2023-06-22T09:51:57;1263.85;;;993.08;;
23586;SDS011;11971;51.148;4.104;2023-06-22T09:54:23;1287.65;;;999.90;;
23586;SDS011;11971;51.148;4.104;2023-06-22T09:56:50;1299.00;;;999.90;;
23586;SDS011;11971;51.148;4.104;2023-06-22T09:59:17;1361.43;;;999.90;;
23586;SDS011;11971;51.148;4.104;2023-06-22T10:01:44;1324.60;;;999.90;;
23586;SDS011;11971;51.148;4.104;2023-06-22T10:04:20;1354.32;;;999.90;;
23586;SDS011;11971;51.148;4.104;2023-06-22T10:06:51;1380.95;;;999.90;;
23586;SDS011;11971;51.148;4.104;2023-06-22T10:09:19;1351.85;;;998.90;;
23586;SDS011;11971;51.148;4.104;2023-06-22T10:11:49;1229.07;;;955.88;;
23586;SDS011;11971;51.148;4.104;2023-06-22T10:14:16;1510.35;;;963.40;;
23586;SDS011;11971;51.148;4.104;2023-06-22T10:16:49;1406.97;;;992.00;;
23586;SDS011;11971;51.148;4.104;2023-06-22T10:19:23;1786.30;;;877.13;;
23586;SDS011;11971;51.148;4.104;2023-06-22T10:21:54;540.45;;;96.93;;
23586;SDS011;11971;51.148;4.104;2023-06-22T10:24:20;211.23;;;113.72;;
23586;SDS011;11971;51.148;4.104;2023-06-22T10:26:47;201.52;;;107.18;;
23586;SDS011;11971;51.148;4.104;2023-06-22T10:29:14;191.07;;;89.10;;
23586;SDS011;11971;51.148;4.104;2023-06-22T10:31:41;196.10;;;97.20;;
23586;SDS011;11971;51.148;4.104;2023-06-22T10:34:08;191.95;;;94.55;;
23586;SDS011;11971;51.148;4.104;2023-06-22T10:36:34;187.75;;;85.97;;
23586;SDS011;11971;51.148;4.104;2023-06-22T10:39:02;193.73;;;90.82;;
23586;SDS011;11971;51.148;4.104;2023-06-22T10:41:30;184.60;;;77.97;;
23586;SDS011;11971;51.148;4.104;2023-06-22T10:43:57;188.05;;;83.18;;
23586;SDS011;11971;51.148;4.104;2023-06-22T10:46:24;198.65;;;105.18;;
23586;SDS011;11971;51.148;4.104;2023-06-22T10:48:51;203.27;;;107.57;;
23586;SDS011;11971;51.148;4.104;2023-06-22T10:51:34;188.80;;;87.13;;
23586;SDS011;11971;51.148;4.104;2023-06-22T10:57:31;197.00;;;100.18;;
23586;SDS011;11971;51.148;4.104;2023-06-22T11:00:10;201.18;;;109.43;;
23586;SDS011;11971;51.148;4.104;2023-06-22T11:02:39;197.85;;;104.72;;
23586;SDS011;11971;51.148;4.104;2023-06-22T11:08:09;195.10;;;102.68;;
23586;SDS011;11971;51.148;4.104;2023-06-22T11:10:36;199.75;;;101.95;;
23586;SDS011;11971;51.148;4.104;2023-06-22T11:13:04;199.18;;;101.80;;
23586;SDS011;11971;51.148;4.104;2023-06-22T11:15:34;201.52;;;105.72;;
23586;SDS011;11971;51.148;4.104;2023-06-22T11:18:02;200.48;;;102.15;;
23586;SDS011;11971;51.148;4.104;2023-06-22T11:20:30;203.52;;;111.10;;
23586;SDS011;11971;51.148;4.104;2023-06-22T11:23:04;202.98;;;110.88;;
23586;SDS011;11971;51.148;4.104;2023-06-22T11:25:49;206.32;;;110.72;;
23586;SDS011;11971;51.148;4.104;2023-06-22T11:28:23;777.05;;;188.35;;
23586;SDS011;11971;51.148;4.104;2023-06-22T11:30:52;1422.13;;;999.90;;
23586;SDS011;11971;51.148;4.104;2023-06-22T11:33:19;1752.15;;;999.90;;
23586;SDS011;11971;51.148;4.104;2023-06-22T11:35:49;1911.15;;;999.90;;
23586;SDS011;11971;51.148;4.104;2023-06-22T11:38:18;1936.13;;;999.90;;
23586;SDS011;11971;51.148;4.104;2023-06-22T11:40:45;1999.90;;;999.90;;
23586;SDS011;11971;51.148;4.104;2023-06-22T11:43:11;1999.90;;;956.78;;
23586;SDS011;11971;51.148;4.104;2023-06-22T11:45:41;1936.13;;;593.27;;
23586;SDS011;11971;51.148;4.104;2023-06-22T11:48:08;1649.10;;;669.38;;
23586;SDS011;11971;51.148;4.104;2023-06-22T11:50:35;1999.90;;;999.90;;
23586;SDS011;11971;51.148;4.104;2023-06-22T11:53:02;1999.90;;;999.90;;
23586;SDS011;11971;51.148;4.104;2023-06-22T11:55:29;1999.90;;;999.90;;
23586;SDS011;11971;51.148;4.104;2023-06-22T11:57:56;1999.90;;;999.90;;
23586;SDS011;11971;51.148;4.104;2023-06-22T12:00:28;1999.90;;;999.90;;
23586;SDS011;11971;51.148;4.104;2023-06-22T12:03:03;1999.90;;;999.90;;
23586;SDS011;11971;51.148;4.104;2023-06-22T12:05:31;1999.90;;;999.90;;
23586;SDS011;11971;51.148;4.104;2023-06-22T12:08:01;1999.90;;;999.90;;
23586;SDS011;11971;51.148;4.104;2023-06-22T12:10:28;1999.90;;;999.90;;
23586;SDS011;11971;51.148;4.104;2023-06-22T12:13:09;1999.90;;;999.90;;
23586;SDS011;11971;51.148;4.104;2023-06-22T12:15:37;1999.90;;;999.90;;
23586;SDS011;11971;51.148;4.104;2023-06-22T12:18:21;1999.90;;;999.90;;
23586;SDS011;11971;51.148;4.104;2023-06-22T12:20:48;1999.90;;;999.90;;
23586;SDS011;11971;51.148;4.104;2023-06-22T12:23:15;1999.90;;;999.90;;
23586;SDS011;11971;51.148;4.104;2023-06-22T12:25:42;1999.90;;;999.90;;
23586;SDS011;11971;51.148;4.104;2023-06-22T12:28:11;1999.90;;;999.90;;
23586;SDS011;11971;51.148;4.104;2023-06-22T12:30:39;1999.90;;;999.90;;
23586;SDS011;11971;51.148;4.104;2023-06-22T12:33:27;1999.90;;;999.90;;
23586;SDS011;11971;51.148;4.104;2023-06-22T12:35:55;1999.90;;;999.90;;
23586;SDS011;11971;51.148;4.104;2023-06-22T12:38:24;1999.90;;;999.90;;
23586;SDS011;11971;51.148;4.104;2023-06-22T12:40:51;1999.90;;;999.90;;
23586;SDS011;11971;51.148;4.104;2023-06-22T12:43:18;1999.90;;;999.90;;
23586;SDS011;11971;51.148;4.104;2023-06-22T12:45:45;1999.90;;;999.90;;
23586;SDS011;11971;51.148;4.104;2023-06-22T12:48:11;1999.90;;;999.90;;
23586;SDS011;11971;51.148;4.104;2023-06-22T12:50:45;1999.90;;;999.90;;
23586;SDS011;11971;51.148;4.104;2023-06-22T12:53:15;1999.90;;;999.90;;
23586;SDS011;11971;51.148;4.104;2023-06-22T12:55:42;1999.90;;;999.90;;
23586;SDS011;11971;51.148;4.104;2023-06-22T12:58:09;1999.90;;;999.90;;
23586;SDS011;11971;51.148;4.104;2023-06-22T13:00:36;1999.90;;;999.90;;
23586;SDS011;11971;51.148;4.104;2023-06-22T13:03:04;1999.90;;;999.90;;
23586;SDS011;11971;51.148;4.104;2023-06-22T13:05:30;1999.90;;;999.90;;
23586;SDS011;11971;51.148;4.104;2023-06-22T13:08:02;1999.90;;;999.90;;
23586;SDS011;11971;51.148;4.104;2023-06-22T13:10:29;1999.90;;;999.90;;
23586;SDS011;11971;51.148;4.104;2023-06-22T13:12:56;1999.90;;;999.90;;
23586;SDS011;11971;51.148;4.104;2023-06-22T13:17:52;1999.90;;;999.90;;
23586;SDS011;11971;51.148;4.104;2023-06-22T13:20:18;1999.90;;;999.90;;
23586;SDS011;11971;51.148;4.104;2023-06-22T13:22:45;1999.90;;;999.90;;
23586;SDS011;11971;51.148;4.104;2023-06-22T13:25:13;1999.90;;;999.90;;
23586;SDS011;11971;51.148;4.104;2023-06-22T13:27:44;1999.90;;;999.90;;
23586;SDS011;11971;51.148;4.104;2023-06-22T13:30:11;1999.90;;;999.90;;
23586;SDS011;11971;51.148;4.104;2023-06-22T13:32:37;1999.90;;;999.90;;
23586;SDS011;11971;51.148;4.104;2023-06-22T13:35:06;1999.90;;;999.90;;
23586;SDS011;11971;51.148;4.104;2023-06-22T13:37:33;1999.90;;;999.90;;
23586;SDS011;11971;51.148;4.104;2023-06-22T13:40:00;1999.90;;;999.90;;
23586;SDS011;11971;51.148;4.104;2023-06-22T13:42:31;1999.90;;;999.90;;
23586;SDS011;11971;51.148;4.104;2023-06-22T13:44:58;1999.90;;;999.90;;
23586;SDS011;11971;51.148;4.104;2023-06-22T13:47:24;1999.90;;;999.90;;
23586;SDS011;11971;51.148;4.104;2023-06-22T13:49:51;1999.90;;;999.90;;
23586;SDS011;11971;51.148;4.104;2023-06-22T13:52:18;1999.90;;;999.90;;
23586;SDS011;11971;51.148;4.104;2023-06-22T13:54:44;1999.90;;;999.90;;
23586;SDS011;11971;51.148;4.104;2023-06-22T13:57:11;1999.90;;;999.90;;
23586;SDS011;11971;51.148;4.104;2023-06-22T13:59:39;1999.90;;;999.90;;
23586;SDS011;11971;51.148;4.104;2023-06-22T14:02:06;1999.90;;;999.90;;
23586;SDS011;11971;51.148;4.104;2023-06-22T14:04:33;1999.90;;;999.90;;
23586;SDS011;11971;51.148;4.104;2023-06-22T14:06:59;1999.90;;;999.90;;
23586;SDS011;11971;51.148;4.104;2023-06-22T14:09:26;1999.90;;;999.90;;
23586;SDS011;11971;51.148;4.104;2023-06-22T14:11:53;1999.90;;;999.90;;
23586;SDS011;11971;51.148;4.104;2023-06-22T14:14:20;1999.90;;;999.90;;
23586;SDS011;11971;51.148;4.104;2023-06-22T14:16:48;1999.90;;;999.90;;